createdAt,value
2018-09-21T00:00:29.340Z,1008.95
2018-09-21T00:01:29.261Z,1008.96
2018-09-21T00:02:30.059Z,1008.93
2018-09-21T00:03:30.045Z,1008.95
2018-09-21T00:04:30.043Z,1008.97
2018-09-21T00:05:29.593Z,1008.91
2018-09-21T00:06:29.132Z,1008.98
2018-09-21T00:07:29.161Z,1008.95
2018-09-21T00:08:29.093Z,1008.96
2018-09-21T00:09:30.063Z,1008.90
2018-09-21T00:10:29.025Z,1008.89
2018-09-21T00:11:29.094Z,1008.90
2018-09-21T00:12:29.021Z,1008.86
2018-09-21T00:13:29.546Z,1008.86
2018-09-21T00:14:28.924Z,1008.89
2018-09-21T00:15:28.893Z,1008.87
2018-09-21T00:16:28.911Z,1008.84
2018-09-21T00:17:29.131Z,1008.83
2018-09-21T00:18:29.551Z,1008.81
2018-09-21T00:19:29.570Z,1008.79
2018-09-21T00:20:28.765Z,1008.81
2018-09-21T00:21:28.732Z,1008.78
2018-09-21T00:22:28.755Z,1008.79
2018-09-21T00:23:29.547Z,1008.80
2018-09-21T00:24:28.662Z,1008.79
2018-09-21T00:25:28.635Z,1008.78
2018-09-21T00:26:28.604Z,1008.79
2018-09-21T00:27:28.620Z,1008.76
2018-09-21T00:28:29.047Z,1008.78
2018-09-21T00:29:28.526Z,1008.76
2018-09-21T00:30:28.502Z,1008.73
2018-09-21T00:31:28.466Z,1008.72
2018-09-21T00:32:28.601Z,1008.69
2018-09-21T00:33:28.472Z,1008.72
2018-09-21T00:34:28.394Z,1008.69
2018-09-21T00:35:29.052Z,1008.70
2018-09-21T00:36:29.052Z,1008.67
2018-09-21T00:37:28.313Z,1008.70
2018-09-21T00:38:28.331Z,1008.66
2018-09-21T00:39:28.315Z,1008.68
2018-09-21T00:40:28.232Z,1008.65
2018-09-21T00:41:28.213Z,1008.64
2018-09-21T00:42:28.190Z,1008.61
2018-09-21T00:43:28.151Z,1008.61
2018-09-21T00:44:28.169Z,1008.60
2018-09-21T00:45:29.054Z,1008.60
2018-09-21T00:46:29.051Z,1008.59
2018-09-21T00:47:28.047Z,1008.58
2018-09-21T00:48:28.103Z,1008.59
2018-09-21T00:49:28.047Z,1008.56
2018-09-21T00:50:28.015Z,1008.56
2018-09-21T00:51:28.554Z,1008.52
2018-09-21T00:52:27.916Z,1008.49
2018-09-21T00:53:27.887Z,1008.48
2018-09-21T00:54:27.860Z,1008.47
2018-09-21T00:55:28.109Z,1008.44
2018-09-21T00:56:28.556Z,1008.43
2018-09-21T00:57:27.789Z,1008.46
2018-09-21T00:58:27.754Z,1008.41
2018-09-21T00:59:28.556Z,1008.45
2018-09-21T01:00:28.126Z,1008.40
2018-09-21T01:01:27.686Z,1008.42
2018-09-21T01:02:27.653Z,1008.42
2018-09-21T01:03:27.623Z,1008.40
2018-09-21T01:04:27.601Z,1008.41
2018-09-21T01:05:27.611Z,1008.38
2018-09-21T01:06:27.592Z,1008.34
2018-09-21T01:07:27.529Z,1008.32
2018-09-21T01:08:27.490Z,1008.33
2018-09-21T01:09:27.462Z,1008.32
2018-09-21T01:10:27.467Z,1008.33
2018-09-21T01:11:27.615Z,1008.33
2018-09-21T01:12:27.660Z,1008.31
2018-09-21T01:13:27.363Z,1008.29
2018-09-21T01:14:28.066Z,1008.26
2018-09-21T01:15:28.061Z,1008.23
2018-09-21T01:16:27.615Z,1008.24
2018-09-21T01:17:27.386Z,1008.23
2018-09-21T01:18:28.060Z,1008.23
2018-09-21T01:19:27.197Z,1008.20
2018-09-21T01:20:27.170Z,1008.22
2018-09-21T01:21:28.057Z,1008.16
2018-09-21T01:22:27.174Z,1008.18
2018-09-21T01:23:27.092Z,1008.20
2018-09-21T01:24:28.059Z,1008.16
2018-09-21T01:25:27.567Z,1008.16
2018-09-21T01:26:27.017Z,1008.15
2018-09-21T01:27:27.111Z,1008.13
2018-09-21T01:28:26.957Z,1008.12
2018-09-21T01:29:26.933Z,1008.11
2018-09-21T01:30:27.564Z,1008.09
2018-09-21T01:31:26.884Z,1008.10
2018-09-21T01:32:26.892Z,1008.09
2018-09-21T01:33:27.560Z,1008.13
2018-09-21T01:34:26.840Z,1008.13
2018-09-21T01:35:26.772Z,1008.09
2018-09-21T01:36:26.744Z,1008.10
2018-09-21T01:37:26.731Z,1008.05
2018-09-21T01:38:27.563Z,1008.05
2018-09-21T01:39:27.123Z,1008.05
2018-09-21T01:40:26.639Z,1008.04
2018-09-21T01:41:27.560Z,1008.02
2018-09-21T01:42:27.561Z,1008.04
2018-09-21T01:43:26.558Z,1008.05
2018-09-21T01:44:26.575Z,1008.02
2018-09-21T01:45:27.067Z,1008.05
2018-09-21T01:46:26.479Z,1008.04
2018-09-21T01:47:26.470Z,1007.98
2018-09-21T01:48:26.423Z,1007.97
2018-09-21T01:49:26.447Z,1007.99
2018-09-21T01:50:27.163Z,1007.99
2018-09-21T01:51:27.074Z,1007.99
2018-09-21T01:52:26.321Z,1008.02
2018-09-21T01:53:27.064Z,1008.03
2018-09-21T01:54:26.323Z,1008.06
2018-09-21T01:55:27.061Z,1008.04
2018-09-21T01:56:27.065Z,1008.03
2018-09-21T01:57:26.196Z,1008.05
2018-09-21T01:58:26.159Z,1008.00
2018-09-21T01:59:26.176Z,1008.05
2018-09-21T02:00:26.108Z,1008.05
2018-09-21T02:01:26.078Z,1007.97
2018-09-21T02:02:26.051Z,1007.99
2018-09-21T02:03:26.567Z,1007.97
2018-09-21T02:04:26.044Z,1007.94
2018-09-21T02:05:26.017Z,1007.89
2018-09-21T02:06:25.946Z,1007.89
2018-09-21T02:07:25.920Z,1007.85
2018-09-21T02:08:25.893Z,1007.81
2018-09-21T02:09:25.910Z,1007.84
2018-09-21T02:10:26.139Z,1007.82
2018-09-21T02:11:25.813Z,1007.80
2018-09-21T02:12:25.786Z,1007.79
2018-09-21T02:13:25.761Z,1007.79
2018-09-21T02:14:26.573Z,1007.82
2018-09-21T02:15:25.747Z,1007.80
2018-09-21T02:16:26.125Z,1007.79
2018-09-21T02:17:25.658Z,1007.78
2018-09-21T02:18:25.630Z,1007.80
2018-09-21T02:19:26.573Z,1007.80
2018-09-21T02:20:25.576Z,1007.76
2018-09-21T02:21:25.628Z,1007.75
2018-09-21T02:22:25.528Z,1007.75
2018-09-21T02:23:26.072Z,1007.74
2018-09-21T02:24:26.071Z,1007.70
2018-09-21T02:25:25.445Z,1007.75
2018-09-21T02:26:25.641Z,1007.67
2018-09-21T02:27:25.391Z,1007.67
2018-09-21T02:28:25.367Z,1007.68
2018-09-21T02:29:25.338Z,1007.66
2018-09-21T02:30:26.071Z,1007.64
2018-09-21T02:31:25.340Z,1007.68
2018-09-21T02:32:25.260Z,1007.67
2018-09-21T02:33:26.111Z,1007.66
2018-09-21T02:34:25.206Z,1007.64
2018-09-21T02:35:26.097Z,1007.62
2018-09-21T02:36:25.640Z,1007.66
2018-09-21T02:37:25.130Z,1007.64
2018-09-21T02:38:25.104Z,1007.62
2018-09-21T02:39:25.071Z,1007.63
2018-09-21T02:40:25.045Z,1007.66
2018-09-21T02:41:25.062Z,1007.64
2018-09-21T02:42:25.001Z,1007.62
2018-09-21T02:43:25.013Z,1007.55
2018-09-21T02:44:24.946Z,1007.61
2018-09-21T02:45:24.945Z,1007.57
2018-09-21T02:46:24.888Z,1007.59
2018-09-21T02:47:24.862Z,1007.58
2018-09-21T02:48:24.878Z,1007.57
2018-09-21T02:49:25.575Z,1007.57
2018-09-21T02:50:24.787Z,1007.55
2018-09-21T02:51:25.578Z,1007.52
2018-09-21T02:52:24.734Z,1007.51
2018-09-21T02:53:24.756Z,1007.48
2018-09-21T02:54:24.678Z,1007.44
2018-09-21T02:55:24.654Z,1007.41
2018-09-21T02:56:25.580Z,1007.40
2018-09-21T02:57:25.577Z,1007.42
2018-09-21T02:58:24.625Z,1007.38
2018-09-21T02:59:24.566Z,1007.36
2018-09-21T03:00:24.580Z,1007.36
2018-09-21T03:01:24.495Z,1007.31
2018-09-21T03:02:25.076Z,1007.34
2018-09-21T03:03:24.486Z,1007.37
2018-09-21T03:04:24.414Z,1007.31
2018-09-21T03:05:25.082Z,1007.34
2018-09-21T03:06:24.401Z,1007.35
2018-09-21T03:07:24.497Z,1007.35
2018-09-21T03:08:25.084Z,1007.33
2018-09-21T03:09:25.094Z,1007.32
2018-09-21T03:10:24.258Z,1007.30
2018-09-21T03:11:25.101Z,1007.28
2018-09-21T03:12:24.259Z,1007.28
2018-09-21T03:13:24.182Z,1007.20
2018-09-21T03:14:25.081Z,1007.24
2018-09-21T03:15:24.139Z,1007.22
2018-09-21T03:16:24.148Z,1007.21
2018-09-21T03:17:24.595Z,1007.21
2018-09-21T03:18:24.049Z,1007.16
2018-09-21T03:19:24.061Z,1007.22
2018-09-21T03:20:24.039Z,1007.17
2018-09-21T03:21:24.579Z,1007.19
2018-09-21T03:22:23.941Z,1007.17
2018-09-21T03:23:24.586Z,1007.17
2018-09-21T03:24:24.137Z,1007.15
2018-09-21T03:25:23.864Z,1007.11
2018-09-21T03:26:24.582Z,1007.07
2018-09-21T03:27:24.174Z,1007.06
2018-09-21T03:28:23.784Z,1007.08
2018-09-21T03:29:24.586Z,1007.07
2018-09-21T03:30:23.733Z,1007.10
2018-09-21T03:31:24.596Z,1007.03
2018-09-21T03:32:23.746Z,1007.02
2018-09-21T03:33:24.589Z,1007.02
2018-09-21T03:34:24.584Z,1006.99
2018-09-21T03:35:23.616Z,1006.95
2018-09-21T03:36:24.082Z,1006.94
2018-09-21T03:37:23.592Z,1006.91
2018-09-21T03:38:24.084Z,1006.93
2018-09-21T03:39:23.515Z,1006.91
2018-09-21T03:40:23.636Z,1006.90
2018-09-21T03:41:24.111Z,1006.88
2018-09-21T03:42:23.461Z,1006.91
2018-09-21T03:43:23.441Z,1006.95
2018-09-21T03:44:23.652Z,1006.94
2018-09-21T03:45:23.352Z,1006.92
2018-09-21T03:46:23.319Z,1006.91
2018-09-21T03:47:23.286Z,1006.89
2018-09-21T03:48:23.260Z,1006.88
2018-09-21T03:49:23.645Z,1006.89
2018-09-21T03:50:24.090Z,1006.87
2018-09-21T03:51:24.087Z,1006.87
2018-09-21T03:52:23.201Z,1006.84
2018-09-21T03:53:23.128Z,1006.87
2018-09-21T03:54:23.165Z,1006.84
2018-09-21T03:55:23.077Z,1006.81
2018-09-21T03:56:23.052Z,1006.80
2018-09-21T03:57:23.027Z,1006.78
2018-09-21T03:58:23.590Z,1006.75
2018-09-21T03:59:23.168Z,1006.82
2018-09-21T04:00:23.604Z,1006.76
2018-09-21T04:01:22.974Z,1006.79
2018-09-21T04:02:22.900Z,1006.79
2018-09-21T04:03:22.924Z,1006.80
2018-09-21T04:04:22.850Z,1006.80
2018-09-21T04:05:23.652Z,1006.76
2018-09-21T04:06:23.590Z,1006.75
2018-09-21T04:07:22.766Z,1006.70
2018-09-21T04:08:22.797Z,1006.70
2018-09-21T04:09:22.710Z,1006.70
2018-09-21T04:10:23.591Z,1006.69
2018-09-21T04:11:23.595Z,1006.65
2018-09-21T04:12:22.676Z,1006.65
2018-09-21T04:13:22.613Z,1006.58
2018-09-21T04:14:22.626Z,1006.56
2018-09-21T04:15:22.599Z,1006.54
2018-09-21T04:16:22.529Z,1006.53
2018-09-21T04:17:22.502Z,1006.55
2018-09-21T04:18:22.474Z,1006.54
2018-09-21T04:19:22.457Z,1006.57
2018-09-21T04:20:22.461Z,1006.54
2018-09-21T04:21:22.397Z,1006.53
2018-09-21T04:22:22.420Z,1006.50
2018-09-21T04:23:22.347Z,1006.46
2018-09-21T04:24:22.360Z,1006.43
2018-09-21T04:25:22.369Z,1006.45
2018-09-21T04:26:23.173Z,1006.42
2018-09-21T04:27:22.248Z,1006.43
2018-09-21T04:28:22.269Z,1006.43
2018-09-21T04:29:22.192Z,1006.40
2018-09-21T04:30:22.164Z,1006.40
2018-09-21T04:31:22.139Z,1006.40
2018-09-21T04:32:22.109Z,1006.38
2018-09-21T04:33:22.134Z,1006.37
2018-09-21T04:34:22.062Z,1006.33
2018-09-21T04:35:22.034Z,1006.34
2018-09-21T04:36:22.024Z,1006.31
2018-09-21T04:37:22.023Z,1006.29
2018-09-21T04:38:21.984Z,1006.28
2018-09-21T04:39:21.925Z,1006.26
2018-09-21T04:40:21.900Z,1006.27
2018-09-21T04:41:21.875Z,1006.27
2018-09-21T04:42:21.892Z,1006.30
2018-09-21T04:43:21.854Z,1006.24
2018-09-21T04:44:21.803Z,1006.21
2018-09-21T04:45:21.772Z,1006.21
2018-09-21T04:46:21.783Z,1006.19
2018-09-21T04:47:21.722Z,1006.13
2018-09-21T04:48:21.714Z,1006.18
2018-09-21T04:49:21.668Z,1006.15
2018-09-21T04:50:21.649Z,1006.15
2018-09-21T04:51:21.660Z,1006.18
2018-09-21T04:52:21.605Z,1006.17
2018-09-21T04:53:21.562Z,1006.19
2018-09-21T04:54:21.585Z,1006.15
2018-09-21T04:55:21.517Z,1006.15
2018-09-21T04:56:21.529Z,1006.11
2018-09-21T04:57:22.120Z,1006.12
2018-09-21T04:58:21.438Z,1006.04
2018-09-21T04:59:21.406Z,1006.10
2018-09-21T05:00:21.381Z,1006.07
2018-09-21T05:01:21.408Z,1006.09
2018-09-21T05:02:21.335Z,1006.06
2018-09-21T05:03:21.306Z,1006.09
2018-09-21T05:04:21.312Z,1006.04
2018-09-21T05:05:21.254Z,1006.01
2018-09-21T05:06:21.285Z,1006.02
2018-09-21T05:07:21.246Z,1006.03
2018-09-21T05:08:21.232Z,1006.04
2018-09-21T05:09:21.151Z,1006.03
2018-09-21T05:10:21.148Z,1006.02
2018-09-21T05:11:21.125Z,1005.94
2018-09-21T05:12:21.072Z,1005.90
2018-09-21T05:13:21.102Z,1005.88
2018-09-21T05:14:21.021Z,1005.89
2018-09-21T05:15:20.996Z,1005.85
2018-09-21T05:16:21.566Z,1005.88
2018-09-21T05:17:20.997Z,1005.85
2018-09-21T05:18:20.924Z,1005.84
2018-09-21T05:19:20.895Z,1005.84
2018-09-21T05:20:20.871Z,1005.84
2018-09-21T05:21:20.842Z,1005.80
2018-09-21T05:22:20.875Z,1005.84
2018-09-21T05:23:20.808Z,1005.84
2018-09-21T05:24:20.774Z,1005.84
2018-09-21T05:25:20.745Z,1005.80
2018-09-21T05:26:20.764Z,1005.79
2018-09-21T05:27:20.698Z,1005.80
2018-09-21T05:28:20.675Z,1005.81
2018-09-21T05:29:20.648Z,1005.81
2018-09-21T05:30:20.625Z,1005.82
2018-09-21T05:31:20.638Z,1005.78
2018-09-21T05:32:20.579Z,1005.81
2018-09-21T05:33:20.544Z,1005.80
2018-09-21T05:34:20.710Z,1005.79
2018-09-21T05:35:20.498Z,1005.77
2018-09-21T05:36:20.523Z,1005.80
2018-09-21T05:37:20.446Z,1005.75
2018-09-21T05:38:20.464Z,1005.75
2018-09-21T05:39:20.397Z,1005.76
2018-09-21T05:40:20.381Z,1005.78
2018-09-21T05:41:20.397Z,1005.72
2018-09-21T05:42:20.327Z,1005.73
2018-09-21T05:43:20.300Z,1005.72
2018-09-21T05:44:20.298Z,1005.78
2018-09-21T05:45:20.252Z,1005.78
2018-09-21T05:46:20.274Z,1005.76
2018-09-21T05:47:20.246Z,1005.75
2018-09-21T05:48:20.188Z,1005.81
2018-09-21T05:49:21.059Z,1005.75
2018-09-21T05:50:20.133Z,1005.73
2018-09-21T05:51:20.111Z,1005.69
2018-09-21T05:52:20.130Z,1005.69
2018-09-21T05:53:20.072Z,1005.67
2018-09-21T05:54:20.079Z,1005.66
2018-09-21T05:55:20.027Z,1005.66
2018-09-21T05:56:20.039Z,1005.67
2018-09-21T05:57:19.966Z,1005.67
2018-09-21T05:58:19.944Z,1005.64
2018-09-21T05:59:19.940Z,1005.63
2018-09-21T06:00:19.896Z,1005.63
2018-09-21T06:01:19.941Z,1005.60
2018-09-21T06:02:19.855Z,1005.58
2018-09-21T06:03:19.877Z,1005.59
2018-09-21T06:04:19.808Z,1005.57
2018-09-21T06:05:19.785Z,1005.54
2018-09-21T06:06:21.022Z,1005.57
2018-09-21T06:07:19.737Z,1005.55
2018-09-21T06:08:19.789Z,1005.55
2018-09-21T06:09:19.773Z,1005.49
2018-09-21T06:10:19.674Z,1005.50
2018-09-21T06:11:19.650Z,1005.48
2018-09-21T06:12:19.642Z,1005.45
2018-09-21T06:13:19.601Z,1005.48
2018-09-21T06:14:19.692Z,1005.45
2018-09-21T06:15:19.594Z,1005.45
2018-09-21T06:16:19.535Z,1005.46
2018-09-21T06:17:19.569Z,1005.38
2018-09-21T06:18:19.494Z,1005.45
2018-09-21T06:19:19.515Z,1005.50
2018-09-21T06:20:19.503Z,1005.47
2018-09-21T06:21:19.502Z,1005.47
2018-09-21T06:22:19.444Z,1005.45
2018-09-21T06:23:19.374Z,1005.49
2018-09-21T06:24:19.358Z,1005.45
2018-09-21T06:25:20.185Z,1005.47
2018-09-21T06:26:19.330Z,1005.45
2018-09-21T06:27:20.122Z,1005.43
2018-09-21T06:28:19.271Z,1005.45
2018-09-21T06:29:19.244Z,1005.51
2018-09-21T06:30:19.289Z,1005.45
2018-09-21T06:31:19.199Z,1005.42
2018-09-21T06:32:19.187Z,1005.43
2018-09-21T06:33:19.181Z,1005.44
2018-09-21T06:34:19.135Z,1005.46
2018-09-21T06:35:19.163Z,1005.45
2018-09-21T06:36:19.093Z,1005.45
2018-09-21T06:37:19.111Z,1005.45
2018-09-21T06:38:19.112Z,1005.41
2018-09-21T06:39:19.039Z,1005.45
2018-09-21T06:40:19.016Z,1005.39
2018-09-21T06:41:18.985Z,1005.42
2018-09-21T06:42:18.966Z,1005.39
2018-09-21T06:43:19.183Z,1005.43
2018-09-21T06:44:18.932Z,1005.43
2018-09-21T06:45:18.907Z,1005.39
2018-09-21T06:46:19.194Z,1005.40
2018-09-21T06:47:18.909Z,1005.35
2018-09-21T06:48:18.832Z,1005.33
2018-09-21T06:49:18.859Z,1005.32
2018-09-21T06:50:18.793Z,1005.34
2018-09-21T06:51:18.821Z,1005.36
2018-09-21T06:52:18.747Z,1005.31
2018-09-21T06:53:18.738Z,1005.36
2018-09-21T06:54:18.704Z,1005.32
2018-09-21T06:55:18.705Z,1005.26
2018-09-21T06:56:18.706Z,1005.27
2018-09-21T06:57:18.645Z,1005.26
2018-09-21T06:58:19.129Z,1005.23
2018-09-21T06:59:18.598Z,1005.14
2018-09-21T07:00:18.581Z,1005.16
2018-09-21T07:01:18.621Z,1005.11
2018-09-21T07:02:18.539Z,1005.11
2018-09-21T07:03:18.514Z,1005.04
2018-09-21T07:04:18.500Z,1005.05
2018-09-21T07:05:18.472Z,1005.03
2018-09-21T07:06:18.495Z,1004.99
2018-09-21T07:07:18.471Z,1004.90
2018-09-21T07:08:18.412Z,1004.93
2018-09-21T07:09:18.388Z,1004.93
2018-09-21T07:10:18.373Z,1004.96
2018-09-21T07:11:18.397Z,1004.92
2018-09-21T07:12:18.332Z,1004.95
2018-09-21T07:13:18.306Z,1004.91
2018-09-21T07:14:18.284Z,1004.88
2018-09-21T07:15:18.261Z,1004.85
2018-09-21T07:16:18.301Z,1004.85
2018-09-21T07:17:18.271Z,1004.86
2018-09-21T07:18:18.202Z,1004.85
2018-09-21T07:19:18.185Z,1004.80
2018-09-21T07:20:18.155Z,1004.82
2018-09-21T07:21:18.192Z,1004.76
2018-09-21T07:22:18.115Z,1004.74
2018-09-21T07:23:18.138Z,1004.69
2018-09-21T07:24:18.076Z,1004.72
2018-09-21T07:25:18.082Z,1004.70
2018-09-21T07:26:18.599Z,1004.66
2018-09-21T07:27:18.009Z,1004.71
2018-09-21T07:28:18.052Z,1004.73
2018-09-21T07:29:17.970Z,1004.76
2018-09-21T07:30:17.947Z,1004.73
2018-09-21T07:31:18.026Z,1004.78
2018-09-21T07:32:18.638Z,1004.79
2018-09-21T07:33:17.925Z,1004.79
2018-09-21T07:34:17.869Z,1004.84
2018-09-21T07:35:18.203Z,1004.84
2018-09-21T07:36:17.818Z,1004.81
2018-09-21T07:37:17.798Z,1004.81
2018-09-21T07:38:18.645Z,1004.78
2018-09-21T07:39:17.810Z,1004.79
2018-09-21T07:40:17.730Z,1004.82
2018-09-21T07:41:17.757Z,1004.83
2018-09-21T07:42:18.645Z,1004.80
2018-09-21T07:43:17.674Z,1004.75
2018-09-21T07:44:17.698Z,1004.79
2018-09-21T07:45:17.629Z,1004.76
2018-09-21T07:46:17.700Z,1004.79
2018-09-21T07:47:18.152Z,1004.76
2018-09-21T07:48:17.580Z,1004.75
2018-09-21T07:49:17.590Z,1004.65
2018-09-21T07:50:17.521Z,1004.67
2018-09-21T07:51:17.533Z,1004.67
2018-09-21T07:52:17.478Z,1004.62
2018-09-21T07:53:17.493Z,1004.62
2018-09-21T07:54:17.455Z,1004.63
2018-09-21T07:55:17.458Z,1004.61
2018-09-21T07:56:17.409Z,1004.55
2018-09-21T07:57:17.374Z,1004.52
2018-09-21T07:58:17.355Z,1004.54
2018-09-21T07:59:17.373Z,1004.53
2018-09-21T08:00:17.702Z,1004.54
2018-09-21T08:01:17.303Z,1004.50
2018-09-21T08:02:17.266Z,1004.41
2018-09-21T08:03:17.291Z,1004.42
2018-09-21T08:04:17.228Z,1004.35
2018-09-21T08:05:17.289Z,1004.34
2018-09-21T08:06:17.203Z,1004.36
2018-09-21T08:07:17.170Z,1004.33
2018-09-21T08:08:17.142Z,1004.37
2018-09-21T08:09:17.652Z,1004.31
2018-09-21T08:10:17.144Z,1004.34
2018-09-21T08:11:17.077Z,1004.37
2018-09-21T08:12:17.057Z,1004.39
2018-09-21T08:13:17.084Z,1004.41
2018-09-21T08:14:17.022Z,1004.34
2018-09-21T08:15:16.996Z,1004.33
2018-09-21T08:16:17.651Z,1004.36
2018-09-21T08:17:16.955Z,1004.36
2018-09-21T08:18:17.005Z,1004.39
2018-09-21T08:19:17.070Z,1004.38
2018-09-21T08:20:16.896Z,1004.46
2018-09-21T08:21:16.871Z,1004.38
2018-09-21T08:22:16.914Z,1004.37
2018-09-21T08:23:16.832Z,1004.38
2018-09-21T08:24:16.808Z,1004.38
2018-09-21T08:25:16.786Z,1004.39
2018-09-21T08:26:16.768Z,1004.38
2018-09-21T08:27:17.221Z,1004.40
2018-09-21T08:28:16.724Z,1004.36
2018-09-21T08:29:16.704Z,1004.38
2018-09-21T08:30:16.684Z,1004.34
2018-09-21T08:31:16.715Z,1004.33
2018-09-21T08:32:16.708Z,1004.28
2018-09-21T08:33:16.704Z,1004.24
2018-09-21T08:34:16.720Z,1004.20
2018-09-21T08:35:16.585Z,1004.22
2018-09-21T08:36:16.558Z,1004.24
2018-09-21T08:37:16.610Z,1004.23
2018-09-21T08:38:16.519Z,1004.21
2018-09-21T08:39:16.558Z,1004.19
2018-09-21T08:40:16.477Z,1004.11
2018-09-21T08:41:16.458Z,1004.12
2018-09-21T08:42:16.441Z,1004.07
2018-09-21T08:43:16.417Z,1004.07
2018-09-21T08:44:16.442Z,1004.01
2018-09-21T08:45:16.421Z,1003.94
2018-09-21T08:46:16.354Z,1003.97
2018-09-21T08:47:16.336Z,1003.98
2018-09-21T08:48:16.322Z,1003.94
2018-09-21T08:49:16.380Z,1003.99
2018-09-21T08:50:16.363Z,1003.99
2018-09-21T08:51:16.253Z,1003.96
2018-09-21T08:52:16.235Z,1004.00
2018-09-21T08:53:16.215Z,1003.99
2018-09-21T08:54:16.192Z,1003.99
2018-09-21T08:55:16.215Z,1003.97
2018-09-21T08:56:16.154Z,1003.99
2018-09-21T08:57:16.129Z,1003.90
2018-09-21T08:58:16.681Z,1003.94
2018-09-21T08:59:16.134Z,1003.86
2018-09-21T09:00:16.074Z,1003.89
2018-09-21T09:01:16.050Z,1003.79
2018-09-21T09:02:16.085Z,1003.82
2018-09-21T09:03:16.133Z,1003.77
2018-09-21T09:04:16.004Z,1003.79
2018-09-21T09:05:15.982Z,1003.79
2018-09-21T09:06:15.947Z,1003.76
2018-09-21T09:07:15.971Z,1003.76
2018-09-21T09:08:15.967Z,1003.75
2018-09-21T09:09:15.885Z,1003.75
2018-09-21T09:10:15.869Z,1003.78
2018-09-21T09:11:15.847Z,1003.72
2018-09-21T09:12:16.676Z,1003.73
2018-09-21T09:13:15.868Z,1003.70
2018-09-21T09:14:16.672Z,1003.63
2018-09-21T09:15:15.766Z,1003.60
2018-09-21T09:16:15.744Z,1003.58
2018-09-21T09:17:15.727Z,1003.56
2018-09-21T09:18:15.742Z,1003.56
2018-09-21T09:19:15.685Z,1003.54
2018-09-21T09:20:15.670Z,1003.54
2018-09-21T09:21:15.645Z,1003.54
2018-09-21T09:22:15.681Z,1003.48
2018-09-21T09:23:16.232Z,1003.51
2018-09-21T09:24:15.585Z,1003.48
2018-09-21T09:25:16.173Z,1003.49
2018-09-21T09:26:15.546Z,1003.43
2018-09-21T09:27:15.572Z,1003.37
2018-09-21T09:28:15.519Z,1003.36
2018-09-21T09:29:15.528Z,1003.36
2018-09-21T09:30:15.475Z,1003.30
2018-09-21T09:31:15.734Z,1003.30
2018-09-21T09:32:15.433Z,1003.27
2018-09-21T09:33:16.182Z,1003.19
2018-09-21T09:34:15.439Z,1003.17
2018-09-21T09:35:16.175Z,1003.22
2018-09-21T09:36:15.752Z,1003.18
2018-09-21T09:37:15.330Z,1003.16
2018-09-21T09:38:16.176Z,1003.12
2018-09-21T09:39:15.296Z,1003.06
2018-09-21T09:40:15.279Z,1003.08
2018-09-21T09:41:15.299Z,1003.05
2018-09-21T09:42:15.235Z,1003.12
2018-09-21T09:43:15.250Z,1003.00
2018-09-21T09:44:16.185Z,1003.02
2018-09-21T09:45:15.221Z,1003.00
2018-09-21T09:46:15.163Z,1002.98
2018-09-21T09:47:15.188Z,1002.96
2018-09-21T09:48:15.143Z,1002.94
2018-09-21T09:49:15.710Z,1002.88
2018-09-21T09:50:15.146Z,1002.85
2018-09-21T09:51:15.065Z,1002.86
2018-09-21T09:52:15.048Z,1002.90
2018-09-21T09:53:15.028Z,1002.83
2018-09-21T09:54:15.681Z,1002.84
2018-09-21T09:55:15.035Z,1002.79
2018-09-21T09:56:14.974Z,1002.82
2018-09-21T09:57:14.957Z,1002.83
2018-09-21T09:58:15.236Z,1002.80
2018-09-21T09:59:14.925Z,1002.85
2018-09-21T10:00:15.685Z,1002.86
2018-09-21T10:01:14.932Z,1002.90
2018-09-21T10:02:15.684Z,1002.90
2018-09-21T10:03:14.852Z,1002.90
2018-09-21T10:04:14.835Z,1002.87
2018-09-21T10:05:14.834Z,1002.81
2018-09-21T10:06:15.322Z,1002.80
2018-09-21T10:07:14.773Z,1002.73
2018-09-21T10:08:14.759Z,1002.75
2018-09-21T10:09:14.791Z,1002.74
2018-09-21T10:10:14.771Z,1002.63
2018-09-21T10:11:15.714Z,1002.66
2018-09-21T10:12:14.686Z,1002.63
2018-09-21T10:13:14.664Z,1002.60
2018-09-21T10:14:14.745Z,1002.59
2018-09-21T10:15:15.189Z,1002.56
2018-09-21T10:16:15.212Z,1002.50
2018-09-21T10:17:14.638Z,1002.48
2018-09-21T10:18:14.582Z,1002.48
2018-09-21T10:19:14.601Z,1002.51
2018-09-21T10:20:14.667Z,1002.53
2018-09-21T10:21:14.521Z,1002.49
2018-09-21T10:22:14.508Z,1002.41
2018-09-21T10:23:14.530Z,1002.44
2018-09-21T10:24:14.479Z,1002.43
2018-09-21T10:25:14.772Z,1002.33
2018-09-21T10:26:14.438Z,1002.37
2018-09-21T10:27:14.464Z,1002.35
2018-09-21T10:28:15.320Z,1002.31
2018-09-21T10:29:14.396Z,1002.29
2018-09-21T10:30:14.436Z,1002.30
2018-09-21T10:31:14.344Z,1002.25
2018-09-21T10:32:14.331Z,1002.30
2018-09-21T10:33:14.373Z,1002.31
2018-09-21T10:34:15.197Z,1002.33
2018-09-21T10:35:14.316Z,1002.26
2018-09-21T10:36:15.196Z,1002.25
2018-09-21T10:37:14.239Z,1002.24
2018-09-21T10:38:15.196Z,1002.19
2018-09-21T10:39:14.343Z,1002.20
2018-09-21T10:40:14.248Z,1002.27
2018-09-21T10:41:14.249Z,1002.17
2018-09-21T10:42:14.171Z,1002.18
2018-09-21T10:43:14.735Z,1002.14
2018-09-21T10:44:14.115Z,1002.09
2018-09-21T10:45:14.699Z,1002.04
2018-09-21T10:46:14.125Z,1002.13
2018-09-21T10:47:14.085Z,1002.08
2018-09-21T10:48:14.702Z,1001.98
2018-09-21T10:49:14.026Z,1001.90
2018-09-21T10:50:14.011Z,1001.92
2018-09-21T10:51:14.258Z,1001.97
2018-09-21T10:52:13.976Z,1001.96
2018-09-21T10:53:14.017Z,1002.10
2018-09-21T10:54:13.951Z,1001.98
2018-09-21T10:55:13.970Z,1002.04
2018-09-21T10:56:13.909Z,1001.96
2018-09-21T10:57:13.892Z,1001.91
2018-09-21T10:58:13.874Z,1001.79
2018-09-21T10:59:13.864Z,1001.82
2018-09-21T11:00:14.255Z,1001.79
2018-09-21T11:01:13.826Z,1001.79
2018-09-21T11:02:13.806Z,1001.76
2018-09-21T11:03:13.833Z,1001.81
2018-09-21T11:04:14.709Z,1001.85
2018-09-21T11:05:13.807Z,1001.75
2018-09-21T11:06:14.705Z,1001.79
2018-09-21T11:07:14.725Z,1001.72
2018-09-21T11:08:13.740Z,1001.68
2018-09-21T11:09:13.688Z,1001.74
2018-09-21T11:10:13.714Z,1001.79
2018-09-21T11:11:13.695Z,1001.65
2018-09-21T11:12:14.212Z,1001.70
2018-09-21T11:13:13.671Z,1001.76
2018-09-21T11:14:13.604Z,1001.67
2018-09-21T11:15:13.646Z,1001.57
2018-09-21T11:16:13.633Z,1001.59
2018-09-21T11:17:13.560Z,1001.62
2018-09-21T11:18:13.542Z,1001.52
2018-09-21T11:19:13.521Z,1001.57
2018-09-21T11:20:13.508Z,1001.57
2018-09-21T11:21:13.532Z,1001.47
2018-09-21T11:22:14.209Z,1001.47
2018-09-21T11:23:13.493Z,1001.44
2018-09-21T11:24:13.449Z,1001.39
2018-09-21T11:25:13.461Z,1001.53
2018-09-21T11:26:13.408Z,1001.43
2018-09-21T11:27:13.435Z,1001.43
2018-09-21T11:28:13.373Z,1001.44
2018-09-21T11:29:13.361Z,1001.38
2018-09-21T11:30:13.344Z,1001.39
2018-09-21T11:31:13.349Z,1001.43
2018-09-21T11:32:13.352Z,1001.43
2018-09-21T11:33:13.346Z,1001.37
2018-09-21T11:34:14.219Z,1001.46
2018-09-21T11:35:13.259Z,1001.48
2018-09-21T11:36:13.249Z,1001.48
2018-09-21T11:37:13.273Z,1001.41
2018-09-21T11:38:13.737Z,1001.44
2018-09-21T11:39:13.727Z,1001.46
2018-09-21T11:40:13.184Z,1001.50
2018-09-21T11:41:13.206Z,1001.33
2018-09-21T11:42:13.150Z,1001.40
2018-09-21T11:43:13.731Z,1001.53
2018-09-21T11:44:13.119Z,1001.41
2018-09-21T11:45:13.100Z,1001.48
2018-09-21T11:46:13.192Z,1001.42
2018-09-21T11:47:13.275Z,1001.36
2018-09-21T11:48:13.083Z,1001.36
2018-09-21T11:49:13.317Z,1001.29
2018-09-21T11:50:13.015Z,1001.31
2018-09-21T11:51:13.004Z,1001.31
2018-09-21T11:52:13.719Z,1001.24
2018-09-21T11:53:12.969Z,1001.23
2018-09-21T11:54:12.998Z,1001.29
2018-09-21T11:55:12.991Z,1001.34
2018-09-21T11:56:12.926Z,1001.11
2018-09-21T11:57:12.906Z,1001.09
2018-09-21T11:58:12.937Z,1001.07
2018-09-21T11:59:12.998Z,1001.12
2018-09-21T12:00:14.130Z,1001.09
2018-09-21T12:01:12.867Z,1001.07
2018-09-21T12:02:12.821Z,1001.01
2018-09-21T12:03:12.808Z,1001.04
2018-09-21T12:04:12.832Z,1001.04
2018-09-21T12:05:13.726Z,1001.07